sensor_id;sensor_type;location;lat;lon;timestamp;P1;durP1;ratioP1;P2;durP2;ratioP2
63653;SDS011;49809;47.418;19.080;2023-06-14T00:01:06;3.17;;;1.87;;
63653;SDS011;49809;47.418;19.080;2023-06-14T00:04:54;3.37;;;2.08;;
63653;SDS011;49809;47.418;19.080;2023-06-14T00:08:24;2.00;;;1.45;;
63653;SDS011;49809;47.418;19.080;2023-06-14T00:12:03;3.13;;;1.90;;
63653;SDS011;49809;47.418;19.080;2023-06-14T00:15:40;4.50;;;2.25;;
63653;SDS011;49809;47.418;19.080;2023-06-14T00:19:26;3.35;;;2.30;;
63653;SDS011;49809;47.418;19.080;2023-06-14T00:23:04;4.20;;;2.25;;
63653;SDS011;49809;47.418;19.080;2023-06-14T00:26:47;5.12;;;2.42;;
63653;SDS011;49809;47.418;19.080;2023-06-14T00:30:30;3.47;;;2.12;;
63653;SDS011;49809;47.418;19.080;2023-06-14T00:33:56;4.62;;;2.25;;
63653;SDS011;49809;47.418;19.080;2023-06-14T00:37:35;4.90;;;1.98;;
63653;SDS011;49809;47.418;19.080;2023-06-14T00:41:13;4.03;;;2.30;;
63653;SDS011;49809;47.418;19.080;2023-06-14T00:44:59;3.35;;;2.30;;
63653;SDS011;49809;47.418;19.080;2023-06-14T00:48:28;5.15;;;3.08;;
63653;SDS011;49809;47.418;19.080;2023-06-14T00:52:00;5.60;;;2.90;;
63653;SDS011;49809;47.418;19.080;2023-06-14T00:55:37;5.62;;;2.50;;
63653;SDS011;49809;47.418;19.080;2023-06-14T00:59:13;7.10;;;3.17;;
63653;SDS011;49809;47.418;19.080;2023-06-14T01:02:52;5.60;;;2.65;;
63653;SDS011;49809;47.418;19.080;2023-06-14T01:06:43;5.37;;;3.20;;
63653;SDS011;49809;47.418;19.080;2023-06-14T01:19:11;6.60;;;3.05;;
63653;SDS011;49809;47.418;19.080;2023-06-14T01:23:08;5.60;;;3.25;;
63653;SDS011;49809;47.418;19.080;2023-06-14T01:26:44;6.00;;;2.92;;
63653;SDS011;49809;47.418;19.080;2023-06-14T01:30:21;7.10;;;3.70;;
63653;SDS011;49809;47.418;19.080;2023-06-14T01:42:00;4.68;;;3.17;;
63653;SDS011;49809;47.418;19.080;2023-06-14T01:45:37;6.80;;;3.30;;
63653;SDS011;49809;47.418;19.080;2023-06-14T01:49:25;6.53;;;3.58;;
63653;SDS011;49809;47.418;19.080;2023-06-14T01:52:49;6.00;;;3.60;;
63653;SDS011;49809;47.418;19.080;2023-06-14T01:56:28;7.53;;;3.40;;
63653;SDS011;49809;47.418;19.080;2023-06-14T01:59:56;7.05;;;3.70;;
63653;SDS011;49809;47.418;19.080;2023-06-14T02:07:18;6.35;;;3.62;;
63653;SDS011;49809;47.418;19.080;2023-06-14T02:10:57;7.25;;;4.10;;
63653;SDS011;49809;47.418;19.080;2023-06-14T02:14:32;8.73;;;3.78;;
63653;SDS011;49809;47.418;19.080;2023-06-14T02:18:02;7.25;;;3.67;;
63653;SDS011;49809;47.418;19.080;2023-06-14T02:21:57;8.60;;;4.10;;
63653;SDS011;49809;47.418;19.080;2023-06-14T02:25:45;7.10;;;3.70;;
63653;SDS011;49809;47.418;19.080;2023-06-14T02:29:31;7.43;;;3.78;;
63653;SDS011;49809;47.418;19.080;2023-06-14T02:33:07;7.62;;;4.40;;
63653;SDS011;49809;47.418;19.080;2023-06-14T02:36:55;8.93;;;4.47;;
63653;SDS011;49809;47.418;19.080;2023-06-14T02:40:41;8.18;;;4.28;;
63653;SDS011;49809;47.418;19.080;2023-06-14T02:44:17;7.72;;;3.28;;
63653;SDS011;49809;47.418;19.080;2023-06-14T02:47:57;7.80;;;3.95;;
63653;SDS011;49809;47.418;19.080;2023-06-14T02:51:42;10.27;;;4.32;;
63653;SDS011;49809;47.418;19.080;2023-06-14T02:55:48;8.38;;;4.03;;
63653;SDS011;49809;47.418;19.080;2023-06-14T02:59:37;8.80;;;4.43;;
63653;SDS011;49809;47.418;19.080;2023-06-14T03:03:30;11.63;;;4.25;;
63653;SDS011;49809;47.418;19.080;2023-06-14T03:07:08;10.10;;;4.32;;
63653;SDS011;49809;47.418;19.080;2023-06-14T03:11:02;8.35;;;4.65;;
63653;SDS011;49809;47.418;19.080;2023-06-14T03:14:40;7.95;;;3.80;;
63653;SDS011;49809;47.418;19.080;2023-06-14T03:22:45;8.70;;;4.47;;
63653;SDS011;49809;47.418;19.080;2023-06-14T03:26:31;8.57;;;4.70;;
63653;SDS011;49809;47.418;19.080;2023-06-14T03:30:10;8.45;;;4.15;;
63653;SDS011;49809;47.418;19.080;2023-06-14T03:33:58;9.35;;;4.72;;
63653;SDS011;49809;47.418;19.080;2023-06-14T03:37:46;8.10;;;4.10;;
63653;SDS011;49809;47.418;19.080;2023-06-14T03:41:22;10.38;;;4.80;;
63653;SDS011;49809;47.418;19.080;2023-06-14T03:45:00;10.05;;;4.95;;
63653;SDS011;49809;47.418;19.080;2023-06-14T03:56:50;9.18;;;4.10;;
63653;SDS011;49809;47.418;19.080;2023-06-14T04:00:29;7.43;;;4.28;;
63653;SDS011;49809;47.418;19.080;2023-06-14T04:07:59;8.32;;;4.35;;
63653;SDS011;49809;47.418;19.080;2023-06-14T04:11:36;10.40;;;4.47;;
63653;SDS011;49809;47.418;19.080;2023-06-14T04:15:33;12.43;;;4.32;;
63653;SDS011;49809;47.418;19.080;2023-06-14T04:19:20;9.48;;;4.60;;
63653;SDS011;49809;47.418;19.080;2023-06-14T04:22:45;7.62;;;4.10;;
63653;SDS011;49809;47.418;19.080;2023-06-14T04:26:33;8.57;;;4.10;;
63653;SDS011;49809;47.418;19.080;2023-06-14T04:30:22;8.20;;;4.55;;
63653;SDS011;49809;47.418;19.080;2023-06-14T04:34:25;5.72;;;3.30;;
63653;SDS011;49809;47.418;19.080;2023-06-14T04:38:12;7.53;;;4.15;;
63653;SDS011;49809;47.418;19.080;2023-06-14T04:42:07;8.55;;;4.20;;
63653;SDS011;49809;47.418;19.080;2023-06-14T04:46:02;7.35;;;3.90;;
63653;SDS011;49809;47.418;19.080;2023-06-14T04:49:49;8.05;;;4.10;;
63653;SDS011;49809;47.418;19.080;2023-06-14T04:53:35;9.05;;;4.47;;
63653;SDS011;49809;47.418;19.080;2023-06-14T04:57:14;8.52;;;3.55;;
63653;SDS011;49809;47.418;19.080;2023-06-14T05:01:06;10.60;;;4.45;;
63653;SDS011;49809;47.418;19.080;2023-06-14T05:04:56;7.18;;;3.75;;
63653;SDS011;49809;47.418;19.080;2023-06-14T05:08:32;6.43;;;3.40;;
63653;SDS011;49809;47.418;19.080;2023-06-14T05:12:10;9.60;;;4.05;;
63653;SDS011;49809;47.418;19.080;2023-06-14T05:16:00;6.22;;;3.60;;
63653;SDS011;49809;47.418;19.080;2023-06-14T05:19:43;8.77;;;3.80;;
63653;SDS011;49809;47.418;19.080;2023-06-14T05:23:20;8.20;;;3.70;;
63653;SDS011;49809;47.418;19.080;2023-06-14T05:26:58;8.27;;;3.65;;
63653;SDS011;49809;47.418;19.080;2023-06-14T05:30:27;7.62;;;3.85;;
63653;SDS011;49809;47.418;19.080;2023-06-14T05:34:21;5.65;;;3.42;;
63653;SDS011;49809;47.418;19.080;2023-06-14T05:37:46;10.25;;;3.55;;
63653;SDS011;49809;47.418;19.080;2023-06-14T05:41:37;5.35;;;3.53;;
63653;SDS011;49809;47.418;19.080;2023-06-14T05:45:03;7.25;;;3.50;;
63653;SDS011;49809;47.418;19.080;2023-06-14T05:48:42;6.83;;;3.97;;
63653;SDS011;49809;47.418;19.080;2023-06-14T05:52:22;6.87;;;3.65;;
63653;SDS011;49809;47.418;19.080;2023-06-14T05:55:58;5.35;;;3.28;;
63653;SDS011;49809;47.418;19.080;2023-06-14T05:59:34;7.93;;;3.75;;
63653;SDS011;49809;47.418;19.080;2023-06-14T06:07:32;8.30;;;3.12;;
63653;SDS011;49809;47.418;19.080;2023-06-14T06:11:20;6.50;;;3.62;;
63653;SDS011;49809;47.418;19.080;2023-06-14T06:15:11;6.30;;;3.65;;
63653;SDS011;49809;47.418;19.080;2023-06-14T06:18:48;6.50;;;3.37;;
63653;SDS011;49809;47.418;19.080;2023-06-14T06:22:27;6.40;;;3.40;;
63653;SDS011;49809;47.418;19.080;2023-06-14T06:26:03;7.10;;;3.42;;
63653;SDS011;49809;47.418;19.080;2023-06-14T06:29:41;6.55;;;3.30;;
63653;SDS011;49809;47.418;19.080;2023-06-14T06:33:19;8.13;;;3.50;;
63653;SDS011;49809;47.418;19.080;2023-06-14T06:37:07;7.28;;;2.97;;
63653;SDS011;49809;47.418;19.080;2023-06-14T06:40:43;5.75;;;3.28;;
63653;SDS011;49809;47.418;19.080;2023-06-14T06:44:38;6.90;;;3.22;;
63653;SDS011;49809;47.418;19.080;2023-06-14T06:48:06;6.60;;;3.47;;
63653;SDS011;49809;47.418;19.080;2023-06-14T06:51:57;6.47;;;2.90;;
63653;SDS011;49809;47.418;19.080;2023-06-14T07:03:55;5.35;;;2.72;;
63653;SDS011;49809;47.418;19.080;2023-06-14T07:07:31;6.03;;;2.60;;
63653;SDS011;49809;47.418;19.080;2023-06-14T07:11:24;5.90;;;3.37;;
63653;SDS011;49809;47.418;19.080;2023-06-14T07:14:51;4.87;;;3.10;;
63653;SDS011;49809;47.418;19.080;2023-06-14T07:18:32;4.62;;;2.85;;
63653;SDS011;49809;47.418;19.080;2023-06-14T07:22:08;7.18;;;3.00;;
63653;SDS011;49809;47.418;19.080;2023-06-14T07:26:05;5.57;;;2.83;;
63653;SDS011;49809;47.418;19.080;2023-06-14T07:29:43;4.82;;;2.80;;
63653;SDS011;49809;47.418;19.080;2023-06-14T07:33:19;5.93;;;3.05;;
63653;SDS011;49809;47.418;19.080;2023-06-14T07:36:55;4.93;;;2.80;;
63653;SDS011;49809;47.418;19.080;2023-06-14T07:44:51;6.10;;;2.97;;
63653;SDS011;49809;47.418;19.080;2023-06-14T07:48:18;4.05;;;2.35;;
63653;SDS011;49809;47.418;19.080;2023-06-14T07:52:06;4.22;;;2.67;;
63653;SDS011;49809;47.418;19.080;2023-06-14T07:55:35;9.00;;;3.05;;
63653;SDS011;49809;47.418;19.080;2023-06-14T07:59:13;7.07;;;3.33;;
63653;SDS011;49809;47.418;19.080;2023-06-14T08:03:00;5.00;;;2.90;;
63653;SDS011;49809;47.418;19.080;2023-06-14T08:06:46;7.87;;;3.05;;
63653;SDS011;49809;47.418;19.080;2023-06-14T08:10:17;5.78;;;3.20;;
63653;SDS011;49809;47.418;19.080;2023-06-14T08:14:04;5.20;;;2.72;;
63653;SDS011;49809;47.418;19.080;2023-06-14T08:17:35;7.53;;;3.20;;
63653;SDS011;49809;47.418;19.080;2023-06-14T08:25:33;7.85;;;2.78;;
63653;SDS011;49809;47.418;19.080;2023-06-14T08:29:09;3.65;;;2.50;;
63653;SDS011;49809;47.418;19.080;2023-06-14T08:32:50;9.50;;;2.95;;
63653;SDS011;49809;47.418;19.080;2023-06-14T08:36:41;5.78;;;2.95;;
63653;SDS011;49809;47.418;19.080;2023-06-14T08:40:23;3.72;;;2.55;;
63653;SDS011;49809;47.418;19.080;2023-06-14T08:44:01;5.50;;;2.90;;
63653;SDS011;49809;47.418;19.080;2023-06-14T08:47:44;4.28;;;2.60;;
63653;SDS011;49809;47.418;19.080;2023-06-14T08:50:55;4.20;;;2.97;;
63653;SDS011;49809;47.418;19.080;2023-06-14T08:54:14;6.18;;;4.37;;
63653;SDS011;49809;47.418;19.080;2023-06-14T08:57:23;5.47;;;3.05;;
63653;SDS011;49809;47.418;19.080;2023-06-14T09:00:29;6.75;;;3.00;;
63653;SDS011;49809;47.418;19.080;2023-06-14T09:03:33;6.68;;;2.58;;
63653;SDS011;49809;47.418;19.080;2023-06-14T09:06:39;3.53;;;2.35;;
63653;SDS011;49809;47.418;19.080;2023-06-14T09:09:44;3.20;;;2.40;;
63653;SDS011;49809;47.418;19.080;2023-06-14T09:13:18;6.53;;;2.60;;
63653;SDS011;49809;47.418;19.080;2023-06-14T09:16:22;5.95;;;2.40;;
63653;SDS011;49809;47.418;19.080;2023-06-14T09:20:11;4.10;;;2.60;;
63653;SDS011;49809;47.418;19.080;2023-06-14T09:23:46;5.90;;;2.70;;
63653;SDS011;49809;47.418;19.080;2023-06-14T09:27:16;4.97;;;2.30;;
63653;SDS011;49809;47.418;19.080;2023-06-14T09:30:52;2.97;;;2.40;;
63653;SDS011;49809;47.418;19.080;2023-06-14T09:34:24;3.35;;;2.22;;
63653;SDS011;49809;47.418;19.080;2023-06-14T09:38:00;3.83;;;2.12;;
63653;SDS011;49809;47.418;19.080;2023-06-14T09:44:54;4.00;;;2.03;;
63653;SDS011;49809;47.418;19.080;2023-06-14T09:48:31;2.50;;;1.87;;
63653;SDS011;49809;47.418;19.080;2023-06-14T09:51:51;4.15;;;2.15;;
63653;SDS011;49809;47.418;19.080;2023-06-14T09:55:19;3.90;;;2.40;;
63653;SDS011;49809;47.418;19.080;2023-06-14T09:58:56;5.43;;;2.40;;
63653;SDS011;49809;47.418;19.080;2023-06-14T10:02:53;3.40;;;1.90;;
63653;SDS011;49809;47.418;19.080;2023-06-14T10:06:49;3.15;;;2.12;;
63653;SDS011;49809;47.418;19.080;2023-06-14T10:10:19;4.00;;;2.40;;
63653;SDS011;49809;47.418;19.080;2023-06-14T10:13:54;3.15;;;2.25;;
63653;SDS011;49809;47.418;19.080;2023-06-14T10:17:27;4.45;;;2.22;;
63653;SDS011;49809;47.418;19.080;2023-06-14T10:21:33;4.97;;;2.50;;
63653;SDS011;49809;47.418;19.080;2023-06-14T10:25:28;3.50;;;2.42;;
63653;SDS011;49809;47.418;19.080;2023-06-14T10:29:00;3.17;;;2.28;;
63653;SDS011;49809;47.418;19.080;2023-06-14T10:32:35;2.15;;;1.95;;
63653;SDS011;49809;47.418;19.080;2023-06-14T10:36:30;2.80;;;2.12;;
63653;SDS011;49809;47.418;19.080;2023-06-14T10:39:42;2.28;;;1.87;;
63653;SDS011;49809;47.418;19.080;2023-06-14T10:43:22;2.92;;;1.67;;
63653;SDS011;49809;47.418;19.080;2023-06-14T10:50:27;2.35;;;1.73;;
63653;SDS011;49809;47.418;19.080;2023-06-14T10:54:07;6.03;;;2.00;;
63653;SDS011;49809;47.418;19.080;2023-06-14T10:57:59;2.35;;;1.83;;
63653;SDS011;49809;47.418;19.080;2023-06-14T11:01:22;2.50;;;2.00;;
63653;SDS011;49809;47.418;19.080;2023-06-14T11:05:25;3.33;;;1.98;;
63653;SDS011;49809;47.418;19.080;2023-06-14T11:09:20;5.65;;;2.30;;
63653;SDS011;49809;47.418;19.080;2023-06-14T11:12:48;2.28;;;2.08;;
63653;SDS011;49809;47.418;19.080;2023-06-14T11:16:25;1.87;;;1.70;;
63653;SDS011;49809;47.418;19.080;2023-06-14T11:20:07;4.18;;;1.80;;
63653;SDS011;49809;47.418;19.080;2023-06-14T11:26:59;2.20;;;2.00;;
63653;SDS011;49809;47.418;19.080;2023-06-14T11:30:43;1.92;;;1.73;;
63653;SDS011;49809;47.418;19.080;2023-06-14T11:34:11;2.85;;;2.15;;
63653;SDS011;49809;47.418;19.080;2023-06-14T11:37:39;2.87;;;1.85;;
63653;SDS011;49809;47.418;19.080;2023-06-14T11:41:10;2.53;;;1.80;;
63653;SDS011;49809;47.418;19.080;2023-06-14T11:44:13;2.15;;;1.92;;
63653;SDS011;49809;47.418;19.080;2023-06-14T11:47:17;2.22;;;1.98;;
63653;SDS011;49809;47.418;19.080;2023-06-14T11:51:01;3.35;;;2.00;;
63653;SDS011;49809;47.418;19.080;2023-06-14T11:54:19;2.30;;;1.95;;
63653;SDS011;49809;47.418;19.080;2023-06-14T11:57:51;2.50;;;1.87;;
63653;SDS011;49809;47.418;19.080;2023-06-14T12:01:16;2.80;;;1.90;;
63653;SDS011;49809;47.418;19.080;2023-06-14T12:05:06;6.40;;;2.10;;
63653;SDS011;49809;47.418;19.080;2023-06-14T12:08:57;3.83;;;1.90;;
63653;SDS011;49809;47.418;19.080;2023-06-14T12:12:25;2.20;;;1.83;;
63653;SDS011;49809;47.418;19.080;2023-06-14T12:15:32;4.60;;;1.98;;
63653;SDS011;49809;47.418;19.080;2023-06-14T12:18:37;2.30;;;2.00;;
63653;SDS011;49809;47.418;19.080;2023-06-14T12:22:03;4.35;;;1.90;;
63653;SDS011;49809;47.418;19.080;2023-06-14T12:29:32;4.20;;;2.00;;
63653;SDS011;49809;47.418;19.080;2023-06-14T12:33:12;2.50;;;1.90;;
63653;SDS011;49809;47.418;19.080;2023-06-14T12:36:47;1.98;;;1.80;;
63653;SDS011;49809;47.418;19.080;2023-06-14T12:40:23;4.22;;;1.80;;
63653;SDS011;49809;47.418;19.080;2023-06-14T12:44:09;2.87;;;1.70;;
63653;SDS011;49809;47.418;19.080;2023-06-14T12:47:54;2.60;;;2.10;;
63653;SDS011;49809;47.418;19.080;2023-06-14T12:51:16;2.20;;;1.73;;
63653;SDS011;49809;47.418;19.080;2023-06-14T12:54:50;4.25;;;1.80;;
63653;SDS011;49809;47.418;19.080;2023-06-14T12:57:54;3.00;;;1.80;;
63653;SDS011;49809;47.418;19.080;2023-06-14T13:01:29;2.33;;;1.83;;
63653;SDS011;49809;47.418;19.080;2023-06-14T13:05:08;2.45;;;1.90;;
63653;SDS011;49809;47.418;19.080;2023-06-14T13:08:51;3.33;;;2.00;;
63653;SDS011;49809;47.418;19.080;2023-06-14T13:12:13;3.12;;;1.95;;
63653;SDS011;49809;47.418;19.080;2023-06-14T13:15:39;2.40;;;1.73;;
63653;SDS011;49809;47.418;19.080;2023-06-14T13:19:14;2.20;;;1.83;;
63653;SDS011;49809;47.418;19.080;2023-06-14T13:22:52;2.83;;;2.00;;
63653;SDS011;49809;47.418;19.080;2023-06-14T13:26:26;3.97;;;2.10;;
63653;SDS011;49809;47.418;19.080;2023-06-14T13:30:04;4.25;;;2.00;;
63653;SDS011;49809;47.418;19.080;2023-06-14T13:33:41;2.78;;;2.03;;
63653;SDS011;49809;47.418;19.080;2023-06-14T13:37:16;2.67;;;2.10;;
63653;SDS011;49809;47.418;19.080;2023-06-14T13:40:39;4.90;;;2.30;;
63653;SDS011;49809;47.418;19.080;2023-06-14T13:44:06;3.17;;;2.22;;
63653;SDS011;49809;47.418;19.080;2023-06-14T13:47:44;3.08;;;2.20;;
63653;SDS011;49809;47.418;19.080;2023-06-14T13:51:11;2.30;;;2.10;;
63653;SDS011;49809;47.418;19.080;2023-06-14T13:54:45;2.45;;;1.80;;
63653;SDS011;49809;47.418;19.080;2023-06-14T13:58:03;2.40;;;2.05;;
63653;SDS011;49809;47.418;19.080;2023-06-14T14:01:23;3.30;;;2.17;;
63653;SDS011;49809;47.418;19.080;2023-06-14T14:05:02;3.12;;;2.35;;
63653;SDS011;49809;47.418;19.080;2023-06-14T14:08:22;3.08;;;2.00;;
63653;SDS011;49809;47.418;19.080;2023-06-14T14:11:51;2.95;;;2.00;;
63653;SDS011;49809;47.418;19.080;2023-06-14T14:15:06;3.03;;;1.92;;
63653;SDS011;49809;47.418;19.080;2023-06-14T14:18:31;2.72;;;2.10;;
63653;SDS011;49809;47.418;19.080;2023-06-14T14:22:07;3.92;;;2.03;;
63653;SDS011;49809;47.418;19.080;2023-06-14T14:25:38;5.05;;;2.00;;
63653;SDS011;49809;47.418;19.080;2023-06-14T14:29:17;2.72;;;2.20;;
63653;SDS011;49809;47.418;19.080;2023-06-14T14:32:36;5.10;;;2.17;;
63653;SDS011;49809;47.418;19.080;2023-06-14T14:36:11;2.85;;;2.15;;
63653;SDS011;49809;47.418;19.080;2023-06-14T14:39:47;2.87;;;2.08;;
63653;SDS011;49809;47.418;19.080;2023-06-14T14:43:06;3.05;;;2.03;;
63653;SDS011;49809;47.418;19.080;2023-06-14T14:46:42;3.97;;;2.00;;
63653;SDS011;49809;47.418;19.080;2023-06-14T14:50:07;3.10;;;2.00;;
63653;SDS011;49809;47.418;19.080;2023-06-14T14:53:28;4.40;;;2.10;;
63653;SDS011;49809;47.418;19.080;2023-06-14T14:57:03;9.02;;;2.30;;
63653;SDS011;49809;47.418;19.080;2023-06-14T15:00:36;2.40;;;1.80;;
63653;SDS011;49809;47.418;19.080;2023-06-14T15:04:13;2.40;;;1.83;;
63653;SDS011;49809;47.418;19.080;2023-06-14T15:07:38;2.25;;;1.80;;
63653;SDS011;49809;47.418;19.080;2023-06-14T15:11:07;3.72;;;2.00;;
63653;SDS011;49809;47.418;19.080;2023-06-14T15:14:43;3.90;;;2.47;;
63653;SDS011;49809;47.418;19.080;2023-06-14T15:18:18;5.15;;;2.22;;
63653;SDS011;49809;47.418;19.080;2023-06-14T15:21:57;3.17;;;2.08;;
63653;SDS011;49809;47.418;19.080;2023-06-14T15:25:28;3.00;;;1.92;;
63653;SDS011;49809;47.418;19.080;2023-06-14T15:29:04;3.53;;;2.05;;
63653;SDS011;49809;47.418;19.080;2023-06-14T15:32:48;3.65;;;1.90;;
63653;SDS011;49809;47.418;19.080;2023-06-14T15:36:07;2.25;;;2.05;;
63653;SDS011;49809;47.418;19.080;2023-06-14T15:39:40;2.92;;;1.85;;
63653;SDS011;49809;47.418;19.080;2023-06-14T15:42:59;3.87;;;2.05;;
63653;SDS011;49809;47.418;19.080;2023-06-14T15:46:19;3.00;;;2.17;;
63653;SDS011;49809;47.418;19.080;2023-06-14T15:49:57;3.05;;;1.90;;
63653;SDS011;49809;47.418;19.080;2023-06-14T15:53:16;3.37;;;1.65;;
63653;SDS011;49809;47.418;19.080;2023-06-14T15:56:43;3.10;;;1.80;;
63653;SDS011;49809;47.418;19.080;2023-06-14T16:00:01;2.80;;;1.90;;
63653;SDS011;49809;47.418;19.080;2023-06-14T16:03:22;2.58;;;1.80;;
63653;SDS011;49809;47.418;19.080;2023-06-14T16:06:58;3.15;;;1.65;;
63653;SDS011;49809;47.418;19.080;2023-06-14T16:10:35;1.98;;;1.50;;
63653;SDS011;49809;47.418;19.080;2023-06-14T16:14:01;3.45;;;1.80;;
63653;SDS011;49809;47.418;19.080;2023-06-14T16:17:36;2.87;;;1.70;;
63653;SDS011;49809;47.418;19.080;2023-06-14T16:21:13;4.32;;;1.77;;
63653;SDS011;49809;47.418;19.080;2023-06-14T16:24:49;1.90;;;1.48;;
63653;SDS011;49809;47.418;19.080;2023-06-14T16:28:11;3.67;;;1.92;;
63653;SDS011;49809;47.418;19.080;2023-06-14T16:31:49;2.60;;;2.12;;
63653;SDS011;49809;47.418;19.080;2023-06-14T16:35:16;3.50;;;1.73;;
63653;SDS011;49809;47.418;19.080;2023-06-14T16:39:00;4.62;;;1.80;;
63653;SDS011;49809;47.418;19.080;2023-06-14T16:42:40;2.33;;;1.80;;
63653;SDS011;49809;47.418;19.080;2023-06-14T16:46:07;2.55;;;1.60;;
63653;SDS011;49809;47.418;19.080;2023-06-14T16:49:45;2.87;;;1.77;;
63653;SDS011;49809;47.418;19.080;2023-06-14T16:53:21;3.30;;;1.92;;
63653;SDS011;49809;47.418;19.080;2023-06-14T16:56:56;3.80;;;2.22;;
63653;SDS011;49809;47.418;19.080;2023-06-14T17:04:57;5.82;;;2.03;;
63653;SDS011;49809;47.418;19.080;2023-06-14T17:12:32;6.00;;;2.40;;
63653;SDS011;49809;47.418;19.080;2023-06-14T17:16:06;3.45;;;1.80;;
63653;SDS011;49809;47.418;19.080;2023-06-14T17:19:45;2.67;;;2.00;;
63653;SDS011;49809;47.418;19.080;2023-06-14T17:23:38;3.25;;;1.83;;
63653;SDS011;49809;47.418;19.080;2023-06-14T17:27:44;4.75;;;2.08;;
63653;SDS011;49809;47.418;19.080;2023-06-14T17:31:13;3.20;;;1.90;;
63653;SDS011;49809;47.418;19.080;2023-06-14T17:35:03;3.60;;;1.90;;
63653;SDS011;49809;47.418;19.080;2023-06-14T17:47:15;3.33;;;2.17;;
63653;SDS011;49809;47.418;19.080;2023-06-14T17:51:03;3.17;;;2.10;;
63653;SDS011;49809;47.418;19.080;2023-06-14T17:54:40;3.20;;;2.22;;
63653;SDS011;49809;47.418;19.080;2023-06-14T18:02:20;3.05;;;1.77;;
63653;SDS011;49809;47.418;19.080;2023-06-14T18:06:29;2.67;;;1.80;;
63653;SDS011;49809;47.418;19.080;2023-06-14T18:10:06;2.58;;;1.70;;
63653;SDS011;49809;47.418;19.080;2023-06-14T18:13:56;4.80;;;1.90;;
63653;SDS011;49809;47.418;19.080;2023-06-14T18:17:43;4.37;;;1.83;;
63653;SDS011;49809;47.418;19.080;2023-06-14T18:21:38;2.97;;;2.00;;
63653;SDS011;49809;47.418;19.080;2023-06-14T18:29:17;3.25;;;2.03;;
63653;SDS011;49809;47.418;19.080;2023-06-14T18:32:56;2.33;;;1.85;;
63653;SDS011;49809;47.418;19.080;2023-06-14T18:37:08;2.97;;;1.90;;
63653;SDS011;49809;47.418;19.080;2023-06-14T18:40:53;3.22;;;1.95;;
63653;SDS011;49809;47.418;19.080;2023-06-14T18:44:32;4.22;;;2.05;;
63653;SDS011;49809;47.418;19.080;2023-06-14T18:52:22;4.57;;;2.28;;
63653;SDS011;49809;47.418;19.080;2023-06-14T18:56:01;3.30;;;1.80;;
63653;SDS011;49809;47.418;19.080;2023-06-14T18:59:58;5.03;;;1.90;;
63653;SDS011;49809;47.418;19.080;2023-06-14T19:03:44;3.67;;;2.03;;
63653;SDS011;49809;47.418;19.080;2023-06-14T19:11:37;3.65;;;1.92;;
63653;SDS011;49809;47.418;19.080;2023-06-14T19:15:28;4.75;;;2.22;;
63653;SDS011;49809;47.418;19.080;2023-06-14T19:19:33;3.08;;;2.12;;
63653;SDS011;49809;47.418;19.080;2023-06-14T19:31:40;4.28;;;2.22;;
63653;SDS011;49809;47.418;19.080;2023-06-14T19:35:17;3.85;;;2.17;;
63653;SDS011;49809;47.418;19.080;2023-06-14T19:38:55;4.57;;;2.25;;
63653;SDS011;49809;47.418;19.080;2023-06-14T19:50:31;4.32;;;2.30;;
63653;SDS011;49809;47.418;19.080;2023-06-14T20:02:19;5.87;;;2.45;;
63653;SDS011;49809;47.418;19.080;2023-06-14T20:06:21;4.35;;;2.53;;
63653;SDS011;49809;47.418;19.080;2023-06-14T20:09:48;5.50;;;2.35;;
63653;SDS011;49809;47.418;19.080;2023-06-14T20:14:00;3.60;;;2.28;;
63653;SDS011;49809;47.418;19.080;2023-06-14T20:17:55;3.72;;;2.78;;
63653;SDS011;49809;47.418;19.080;2023-06-14T20:21:24;4.82;;;2.20;;
63653;SDS011;49809;47.418;19.080;2023-06-14T20:25:18;4.53;;;2.50;;
63653;SDS011;49809;47.418;19.080;2023-06-14T20:29:17;6.22;;;2.42;;
63653;SDS011;49809;47.418;19.080;2023-06-14T20:33:09;2.87;;;2.03;;
63653;SDS011;49809;47.418;19.080;2023-06-14T20:36:35;4.10;;;2.40;;
63653;SDS011;49809;47.418;19.080;2023-06-14T20:40:20;5.22;;;2.83;;
63653;SDS011;49809;47.418;19.080;2023-06-14T20:44:25;4.82;;;2.37;;
63653;SDS011;49809;47.418;19.080;2023-06-14T20:48:47;5.82;;;2.40;;
63653;SDS011;49809;47.418;19.080;2023-06-14T20:52:24;5.45;;;2.72;;
63653;SDS011;49809;47.418;19.080;2023-06-14T20:56:23;4.15;;;2.37;;
63653;SDS011;49809;47.418;19.080;2023-06-14T21:04:05;3.75;;;2.17;;
63653;SDS011;49809;47.418;19.080;2023-06-14T21:12:27;3.70;;;2.45;;
63653;SDS011;49809;47.418;19.080;2023-06-14T21:16:10;3.95;;;2.50;;
63653;SDS011;49809;47.418;19.080;2023-06-14T21:19:53;6.03;;;2.70;;
63653;SDS011;49809;47.418;19.080;2023-06-14T21:23:42;6.47;;;2.53;;
63653;SDS011;49809;47.418;19.080;2023-06-14T21:27:44;6.93;;;2.70;;
63653;SDS011;49809;47.418;19.080;2023-06-14T21:35:59;4.20;;;2.40;;
63653;SDS011;49809;47.418;19.080;2023-06-14T21:39:43;3.95;;;2.62;;
63653;SDS011;49809;47.418;19.080;2023-06-14T21:43:25;5.68;;;2.33;;
63653;SDS011;49809;47.418;19.080;2023-06-14T21:50:32;6.03;;;2.45;;
63653;SDS011;49809;47.418;19.080;2023-06-14T21:54:21;4.37;;;2.45;;
63653;SDS011;49809;47.418;19.080;2023-06-14T21:58:13;4.12;;;2.55;;
63653;SDS011;49809;47.418;19.080;2023-06-14T22:01:50;3.47;;;2.37;;
63653;SDS011;49809;47.418;19.080;2023-06-14T22:05:35;6.57;;;2.60;;
63653;SDS011;49809;47.418;19.080;2023-06-14T22:09:30;5.47;;;2.70;;
63653;SDS011;49809;47.418;19.080;2023-06-14T22:13:10;5.72;;;2.70;;
63653;SDS011;49809;47.418;19.080;2023-06-14T22:16:47;7.72;;;2.97;;
63653;SDS011;49809;47.418;19.080;2023-06-14T22:20:32;4.37;;;2.15;;
63653;SDS011;49809;47.418;19.080;2023-06-14T22:23:50;3.87;;;2.55;;
63653;SDS011;49809;47.418;19.080;2023-06-14T22:27:43;5.37;;;2.70;;
63653;SDS011;49809;47.418;19.080;2023-06-14T22:31:39;4.85;;;2.58;;
63653;SDS011;49809;47.418;19.080;2023-06-14T22:35:20;4.72;;;2.92;;
63653;SDS011;49809;47.418;19.080;2023-06-14T22:42:58;3.50;;;2.40;;
63653;SDS011;49809;47.418;19.080;2023-06-14T22:50:47;3.67;;;2.37;;
63653;SDS011;49809;47.418;19.080;2023-06-14T22:58:31;7.00;;;2.60;;
63653;SDS011;49809;47.418;19.080;2023-06-14T23:06:03;6.12;;;2.65;;
63653;SDS011;49809;47.418;19.080;2023-06-14T23:09:29;10.10;;;2.90;;
63653;SDS011;49809;47.418;19.080;2023-06-14T23:17:46;4.97;;;2.62;;
63653;SDS011;49809;47.418;19.080;2023-06-14T23:21:37;6.37;;;2.60;;
63653;SDS011;49809;47.418;19.080;2023-06-14T23:25:26;3.42;;;2.37;;
63653;SDS011;49809;47.418;19.080;2023-06-14T23:29:06;4.20;;;2.78;;
63653;SDS011;49809;47.418;19.080;2023-06-14T23:32:53;4.40;;;2.65;;
63653;SDS011;49809;47.418;19.080;2023-06-14T23:36:19;4.57;;;2.80;;
63653;SDS011;49809;47.418;19.080;2023-06-14T23:40:12;5.35;;;3.08;;
63653;SDS011;49809;47.418;19.080;2023-06-14T23:43:29;5.62;;;3.05;;
63653;SDS011;49809;47.418;19.080;2023-06-14T23:47:20;5.00;;;2.85;;
63653;SDS011;49809;47.418;19.080;2023-06-14T23:50:57;3.35;;;2.30;;
63653;SDS011;49809;47.418;19.080;2023-06-14T23:58:54;4.43;;;3.03;;
